createdAt,value
2023-09-13T00:00:46.733Z,29.17
2023-09-13T00:03:51.343Z,27.92
2023-09-13T00:06:56.288Z,29.48
2023-09-13T00:10:01.315Z,31.42
2023-09-13T00:13:05.916Z,32.53
2023-09-13T00:16:10.438Z,35.80
2023-09-13T00:19:17.573Z,31.90
2023-09-13T00:22:21.823Z,24.33
2023-09-13T00:25:26.297Z,35.25
2023-09-13T00:28:31.143Z,25.98
2023-09-13T00:31:36.252Z,28.98
2023-09-13T00:34:40.980Z,22.98
2023-09-13T00:37:45.284Z,20.70
2023-09-13T00:40:49.612Z,23.15
2023-09-13T00:43:54.108Z,23.65
2023-09-13T00:46:58.770Z,17.95
2023-09-13T00:50:04.424Z,20.73
2023-09-13T00:53:10.269Z,16.15
2023-09-13T00:56:19.149Z,13.18
2023-09-13T00:59:23.679Z,20.05
2023-09-13T01:02:29.135Z,17.40
2023-09-13T01:05:36.827Z,19.27
2023-09-13T01:08:45.256Z,17.42
2023-09-13T01:11:51.573Z,13.55
2023-09-13T01:14:56.466Z,15.85
2023-09-13T01:18:23.411Z,16.75
2023-09-13T01:22:02.073Z,16.05
2023-09-13T01:25:34.962Z,18.13
2023-09-13T01:28:48.748Z,14.50
2023-09-13T01:31:54.388Z,18.58
2023-09-13T01:34:59.090Z,18.13
2023-09-13T01:38:03.812Z,17.05
2023-09-13T01:41:26.450Z,24.20
2023-09-13T01:44:32.844Z,18.92
2023-09-13T01:47:42.053Z,15.80
2023-09-13T01:50:49.275Z,17.73
2023-09-13T01:53:56.118Z,13.60
2023-09-13T01:57:00.464Z,10.73
2023-09-13T02:00:06.643Z,12.35
2023-09-13T02:03:13.237Z,12.45
2023-09-13T02:06:17.894Z,11.35
2023-09-13T02:09:22.653Z,10.30
2023-09-13T02:12:33.091Z,10.38
2023-09-13T02:15:41.291Z,14.60
2023-09-13T02:18:45.942Z,12.60
2023-09-13T02:21:50.481Z,15.80
2023-09-13T02:24:54.777Z,11.85
2023-09-13T02:27:59.205Z,12.38
2023-09-13T02:31:03.684Z,14.55
2023-09-13T02:34:08.007Z,14.25
2023-09-13T02:37:12.256Z,8.32
2023-09-13T02:40:16.866Z,11.18
2023-09-13T02:43:21.362Z,6.90
2023-09-13T02:46:25.767Z,8.00
2023-09-13T02:49:30.768Z,7.63
2023-09-13T02:52:35.740Z,14.88
2023-09-13T02:55:40.021Z,8.52
2023-09-13T02:58:44.538Z,8.60
2023-09-13T03:01:51.297Z,12.63
2023-09-13T03:04:55.810Z,8.85
2023-09-13T03:08:00.444Z,7.60
2023-09-13T03:11:20.080Z,9.02
2023-09-13T03:14:24.397Z,11.07
2023-09-13T03:17:30.170Z,7.05
2023-09-13T03:20:41.011Z,12.45
2023-09-13T03:23:47.741Z,10.90
2023-09-13T03:26:52.725Z,11.50
2023-09-13T03:29:59.272Z,6.63
2023-09-13T03:33:04.511Z,13.70
2023-09-13T03:36:13.529Z,10.38
2023-09-13T03:39:18.389Z,11.52
2023-09-13T03:42:22.917Z,12.60
2023-09-13T03:45:27.125Z,7.80
2023-09-13T03:48:32.506Z,18.90
2023-09-13T03:51:37.074Z,10.43
2023-09-13T03:54:41.777Z,9.80
2023-09-13T03:57:46.493Z,7.97
2023-09-13T04:00:51.111Z,15.75
2023-09-13T04:03:59.620Z,14.10
2023-09-13T04:07:03.926Z,12.07
2023-09-13T04:10:08.578Z,8.00
2023-09-13T04:13:13.001Z,12.40
2023-09-13T04:16:18.027Z,8.93
2023-09-13T04:19:22.935Z,8.73
2023-09-13T04:22:27.308Z,12.73
2023-09-13T04:25:31.601Z,7.57
2023-09-13T04:28:36.658Z,8.25
2023-09-13T04:31:41.246Z,10.90
2023-09-13T04:34:47.632Z,5.90
2023-09-13T04:37:52.013Z,9.43
2023-09-13T04:40:56.260Z,10.77
2023-09-13T04:44:02.768Z,13.32
2023-09-13T04:47:07.494Z,5.68
2023-09-13T04:50:13.117Z,7.38
2023-09-13T04:53:17.956Z,8.55
2023-09-13T04:56:31.714Z,4.05
2023-09-13T04:59:45.601Z,8.90
2023-09-13T05:02:50.119Z,6.75
2023-09-13T05:05:56.879Z,3.88
2023-09-13T05:09:01.609Z,8.00
2023-09-13T05:12:08.089Z,13.60
2023-09-13T05:15:12.648Z,6.63
2023-09-13T05:18:24.536Z,4.88
2023-09-13T05:21:29.524Z,8.93
2023-09-13T05:24:34.166Z,4.78
2023-09-13T05:27:38.569Z,5.03
2023-09-13T05:30:48.615Z,6.50
2023-09-13T05:33:53.315Z,7.20
2023-09-13T05:36:57.811Z,7.05
2023-09-13T05:40:07.316Z,8.80
2023-09-13T05:43:12.388Z,4.72
2023-09-13T05:46:17.974Z,6.57
2023-09-13T05:49:22.355Z,8.82
2023-09-13T05:52:29.922Z,5.35
2023-09-13T05:55:34.194Z,10.38
2023-09-13T05:58:44.382Z,5.22
2023-09-13T06:01:49.900Z,6.32
2023-09-13T06:04:54.761Z,11.02
2023-09-13T06:07:59.174Z,9.60
2023-09-13T06:11:03.534Z,6.20
2023-09-13T06:14:12.088Z,7.75
2023-09-13T06:17:16.808Z,10.30
2023-09-13T06:20:21.085Z,8.63
2023-09-13T06:23:39.888Z,8.48
2023-09-13T06:26:45.054Z,13.80
2023-09-13T06:29:58.555Z,6.97
2023-09-13T06:33:12.133Z,5.28
2023-09-13T06:36:18.120Z,9.60
2023-09-13T06:39:23.028Z,7.07
2023-09-13T06:42:28.860Z,12.02
2023-09-13T06:45:34.824Z,8.07
2023-09-13T06:48:40.907Z,11.25
2023-09-13T06:54:55.537Z,9.15
2023-09-13T06:58:10.634Z,10.55
2023-09-13T07:04:36.234Z,10.27
2023-09-13T07:07:44.802Z,12.68
2023-09-13T07:10:49.344Z,6.22
2023-09-13T07:13:53.885Z,5.43
2023-09-13T07:16:58.242Z,7.95
2023-09-13T07:20:02.455Z,6.47
2023-09-13T07:23:07.164Z,7.13
2023-09-13T07:26:11.643Z,5.97
2023-09-13T07:29:16.037Z,8.95
2023-09-13T07:32:20.416Z,6.72
2023-09-13T07:35:24.972Z,10.15
2023-09-13T07:38:29.179Z,9.20
2023-09-13T07:41:33.466Z,8.15
2023-09-13T07:44:37.977Z,4.38
2023-09-13T07:47:42.713Z,4.63
2023-09-13T07:50:47.335Z,11.48
2023-09-13T07:53:54.961Z,13.18
2023-09-13T07:56:59.846Z,12.32
2023-09-13T08:00:07.327Z,13.20
2023-09-13T08:03:12.084Z,8.88
2023-09-13T08:06:16.700Z,4.72
2023-09-13T08:09:21.157Z,11.75
2023-09-13T08:12:25.554Z,6.40
2023-09-13T08:15:43.185Z,8.07
2023-09-13T08:18:51.386Z,10.20
2023-09-13T08:21:55.987Z,9.07
2023-09-13T08:25:00.807Z,7.90
2023-09-13T08:28:06.663Z,11.13
2023-09-13T08:31:11.698Z,8.18
2023-09-13T08:34:15.984Z,9.65
2023-09-13T08:37:20.219Z,8.05
2023-09-13T08:40:25.511Z,9.00
2023-09-13T08:43:32.202Z,5.90
2023-09-13T08:46:38.358Z,4.78
2023-09-13T08:49:44.876Z,12.48
2023-09-13T08:52:50.578Z,4.78
2023-09-13T08:55:57.073Z,11.57
2023-09-13T08:59:02.768Z,6.90
2023-09-13T09:02:11.426Z,12.32
2023-09-13T09:05:18.324Z,7.55
2023-09-13T09:08:25.002Z,7.95
2023-09-13T09:11:32.843Z,7.78
2023-09-13T09:14:38.563Z,9.35
2023-09-13T09:17:44.107Z,7.10
2023-09-13T09:20:48.567Z,7.78
2023-09-13T09:23:58.177Z,5.25
2023-09-13T09:27:04.041Z,7.20
2023-09-13T09:30:15.749Z,4.95
2023-09-13T09:33:32.338Z,10.52
2023-09-13T09:36:42.186Z,5.15
2023-09-13T09:39:46.457Z,4.78
2023-09-13T09:42:57.059Z,6.40
2023-09-13T09:46:01.512Z,6.00
2023-09-13T09:49:06.045Z,7.53
2023-09-13T09:52:12.560Z,15.32
2023-09-13T09:55:20.195Z,2.92
2023-09-13T09:58:25.227Z,5.18
2023-09-13T10:01:31.836Z,4.35
2023-09-13T10:04:55.963Z,10.35
2023-09-13T10:08:00.206Z,4.53
2023-09-13T10:11:06.512Z,11.23
2023-09-13T10:14:26.153Z,5.20
2023-09-13T10:17:30.802Z,5.68
2023-09-13T10:20:37.083Z,7.50
2023-09-13T10:23:51.042Z,6.50
2023-09-13T10:30:06.190Z,5.65
2023-09-13T10:33:13.779Z,11.05
2023-09-13T10:36:32.301Z,5.60
2023-09-13T10:39:48.161Z,10.65
2023-09-13T10:42:55.529Z,8.38
2023-09-13T10:46:02.340Z,6.35
2023-09-13T10:49:06.869Z,8.73
2023-09-13T10:52:11.454Z,7.18
2023-09-13T10:55:17.275Z,6.35
2023-09-13T10:58:23.904Z,4.50
2023-09-13T11:01:29.566Z,13.13
2023-09-13T11:04:34.392Z,8.93
2023-09-13T11:07:48.471Z,7.47
2023-09-13T11:10:55.941Z,2.60
2023-09-13T11:14:11.411Z,5.03
2023-09-13T11:17:40.331Z,7.88
2023-09-13T11:20:45.220Z,9.93
2023-09-13T11:27:16.593Z,6.28
2023-09-13T11:30:51.748Z,8.77
2023-09-13T11:34:00.493Z,7.30
2023-09-13T11:37:07.664Z,11.45
2023-09-13T11:40:15.546Z,10.98
2023-09-13T11:43:33.252Z,11.55
2023-09-13T11:46:39.212Z,4.90
2023-09-13T11:49:55.664Z,10.52
2023-09-13T11:53:12.829Z,4.25
2023-09-13T11:56:44.594Z,5.32
2023-09-13T12:00:07.098Z,4.60
2023-09-13T12:03:19.728Z,2.63
2023-09-13T12:06:32.361Z,6.40
2023-09-13T12:09:39.535Z,4.47
2023-09-13T12:12:51.273Z,4.45
2023-09-13T12:16:04.435Z,5.25
2023-09-13T12:19:15.569Z,3.30
2023-09-13T12:22:23.767Z,9.52
2023-09-13T12:25:28.800Z,4.32
2023-09-13T12:28:41.430Z,5.70
2023-09-13T12:31:46.616Z,4.32
2023-09-13T12:34:51.333Z,3.58
2023-09-13T12:38:03.764Z,3.95
2023-09-13T12:41:09.291Z,3.03
2023-09-13T12:44:15.959Z,4.32
2023-09-13T12:47:20.439Z,3.05
2023-09-13T12:50:33.885Z,3.97
2023-09-13T12:53:40.111Z,4.88
2023-09-13T12:56:44.652Z,3.13
2023-09-13T12:59:51.741Z,3.60
2023-09-13T13:02:56.234Z,2.25
2023-09-13T13:06:03.410Z,3.75
2023-09-13T13:09:10.073Z,2.38
2023-09-13T13:12:17.676Z,2.60
2023-09-13T13:15:33.554Z,3.83
2023-09-13T13:18:53.148Z,3.55
2023-09-13T13:22:10.678Z,3.15
2023-09-13T13:25:22.146Z,4.43
2023-09-13T13:28:26.917Z,9.57
2023-09-13T13:31:31.347Z,3.22
2023-09-13T13:34:35.992Z,3.70
2023-09-13T13:37:47.933Z,3.50
2023-09-13T13:41:11.243Z,3.80
2023-09-13T13:44:18.961Z,3.08
2023-09-13T13:47:23.609Z,5.35
2023-09-13T13:51:33.248Z,2.45
2023-09-13T13:54:37.858Z,3.20
2023-09-13T13:57:43.633Z,1.48
2023-09-13T14:00:51.599Z,2.20
2023-09-13T14:03:56.474Z,3.03
2023-09-13T14:07:01.066Z,3.13
2023-09-13T14:10:06.106Z,3.10
2023-09-13T14:13:14.610Z,2.25
2023-09-13T14:16:22.473Z,4.85
2023-09-13T14:19:27.324Z,1.60
2023-09-13T14:22:32.580Z,2.47
2023-09-13T14:25:37.959Z,2.60
2023-09-13T14:28:43.605Z,2.20
2023-09-13T14:31:48.432Z,2.33
2023-09-13T14:34:53.817Z,4.63
2023-09-13T14:38:00.195Z,2.63
2023-09-13T14:41:04.724Z,2.55
2023-09-13T14:44:09.896Z,4.40
2023-09-13T14:47:16.906Z,3.50
2023-09-13T14:50:21.800Z,2.35
2023-09-13T14:53:26.482Z,1.95
2023-09-13T14:56:56.182Z,1.83
2023-09-13T15:00:05.262Z,3.67
2023-09-13T15:03:10.139Z,2.63
2023-09-13T15:06:19.110Z,4.53
2023-09-13T15:09:24.537Z,5.30
2023-09-13T15:12:38.417Z,2.75
2023-09-13T15:15:46.602Z,4.85
2023-09-13T15:18:52.028Z,7.93
2023-09-13T15:21:57.133Z,2.92
2023-09-13T15:25:02.281Z,3.20
2023-09-13T15:28:06.893Z,3.63
2023-09-13T15:31:11.504Z,10.38
2023-09-13T15:34:16.056Z,2.63
2023-09-13T15:37:20.644Z,3.22
2023-09-13T15:40:25.752Z,2.75
2023-09-13T15:43:30.276Z,4.43
2023-09-13T15:46:35.482Z,2.95
2023-09-13T15:49:40.311Z,4.72
2023-09-13T15:52:45.641Z,2.35
2023-09-13T15:55:49.992Z,3.70
2023-09-13T15:58:54.620Z,3.33
2023-09-13T16:01:59.607Z,4.63
2023-09-13T16:05:06.440Z,6.03
2023-09-13T16:08:11.439Z,5.38
2023-09-13T16:11:16.520Z,6.03
2023-09-13T16:14:35.950Z,4.28
2023-09-13T16:17:40.650Z,9.82
2023-09-13T16:20:46.290Z,3.72
2023-09-13T16:23:51.721Z,4.10
2023-09-13T16:26:57.545Z,4.78
2023-09-13T16:30:05.651Z,4.90
2023-09-13T16:33:10.382Z,7.78
2023-09-13T16:36:15.007Z,7.38
2023-09-13T16:39:20.838Z,5.75
2023-09-13T16:42:25.637Z,3.33
2023-09-13T16:45:30.957Z,3.88
2023-09-13T16:48:36.364Z,3.67
2023-09-13T16:51:44.006Z,5.15
2023-09-13T16:54:53.576Z,6.60
2023-09-13T16:57:58.368Z,4.90
2023-09-13T17:01:04.595Z,5.40
2023-09-13T17:04:11.109Z,6.68
2023-09-13T17:07:16.963Z,15.77
2023-09-13T17:10:24.997Z,2.88
2023-09-13T17:13:29.769Z,4.18
2023-09-13T17:16:35.025Z,5.20
2023-09-13T17:19:40.014Z,7.05
2023-09-13T17:22:44.867Z,7.40
2023-09-13T17:25:52.249Z,8.60
2023-09-13T17:28:57.324Z,7.47
2023-09-13T17:32:02.409Z,4.78
2023-09-13T17:35:07.851Z,7.45
2023-09-13T17:38:12.869Z,6.85
2023-09-13T17:41:17.523Z,10.32
2023-09-13T17:44:22.066Z,9.60
2023-09-13T17:47:26.773Z,8.50
2023-09-13T17:50:31.248Z,6.47
2023-09-13T17:53:35.463Z,6.68
2023-09-13T17:56:40.199Z,6.05
2023-09-13T17:59:47.300Z,5.50
2023-09-13T18:02:52.438Z,6.85
2023-09-13T18:05:57.425Z,7.68
2023-09-13T18:09:02.336Z,4.40
2023-09-13T18:12:07.950Z,8.57
2023-09-13T18:15:13.346Z,8.90
2023-09-13T18:18:18.519Z,6.43
2023-09-13T18:21:24.811Z,5.95
2023-09-13T18:24:38.865Z,9.10
2023-09-13T18:27:45.166Z,3.95
2023-09-13T18:31:04.658Z,3.92
2023-09-13T18:34:10.798Z,9.65
2023-09-13T18:37:15.409Z,6.30
2023-09-13T18:40:20.781Z,6.53
2023-09-13T18:43:28.651Z,6.60
2023-09-13T18:46:33.065Z,9.25
2023-09-13T18:49:37.424Z,4.72
2023-09-13T18:52:41.900Z,5.03
2023-09-13T18:55:51.436Z,5.13
2023-09-13T18:58:56.117Z,3.22
2023-09-13T19:02:00.986Z,5.50
2023-09-13T19:05:05.939Z,3.50
2023-09-13T19:08:10.487Z,9.23
2023-09-13T19:11:15.016Z,3.75
2023-09-13T19:14:19.315Z,10.60
2023-09-13T19:17:24.177Z,5.70
2023-09-13T19:20:30.034Z,2.60
2023-09-13T19:23:35.502Z,3.22
2023-09-13T19:26:41.936Z,4.95
2023-09-13T19:29:47.797Z,2.95
2023-09-13T19:32:52.806Z,6.47
2023-09-13T19:36:01.674Z,5.90
2023-09-13T19:39:07.217Z,7.18
2023-09-13T19:42:11.682Z,4.45
2023-09-13T19:45:16.174Z,5.57
2023-09-13T19:48:20.885Z,9.18
2023-09-13T19:51:25.680Z,4.60
2023-09-13T19:54:39.212Z,8.30
2023-09-13T19:57:43.774Z,4.85
2023-09-13T20:00:55.222Z,4.03
2023-09-13T20:04:00.309Z,2.75
2023-09-13T20:07:05.464Z,4.40
2023-09-13T20:10:11.736Z,2.83
2023-09-13T20:13:16.465Z,6.95
2023-09-13T20:16:21.330Z,10.82
2023-09-13T20:19:25.628Z,5.78
2023-09-13T20:22:32.206Z,10.98
2023-09-13T20:25:37.188Z,5.40
2023-09-13T20:28:42.091Z,7.43
2023-09-13T20:31:46.886Z,2.95
2023-09-13T20:34:59.880Z,7.38
2023-09-13T20:38:05.140Z,5.03
2023-09-13T20:41:09.199Z,2.90
2023-09-13T20:44:13.735Z,4.30
2023-09-13T20:47:18.341Z,6.53
2023-09-13T20:50:22.730Z,3.80
2023-09-13T20:53:28.927Z,1.95
2023-09-13T20:56:33.377Z,6.43
2023-09-13T20:59:40.166Z,6.40
2023-09-13T21:02:44.701Z,5.30
2023-09-13T21:05:49.935Z,8.57
2023-09-13T21:08:54.804Z,5.50
2023-09-13T21:11:59.009Z,3.60
2023-09-13T21:15:04.191Z,6.57
2023-09-13T21:18:09.147Z,15.88
2023-09-13T21:21:15.435Z,7.95
2023-09-13T21:24:20.167Z,5.10
2023-09-13T21:27:25.420Z,7.70
2023-09-13T21:30:30.133Z,4.57
2023-09-13T21:33:35.501Z,3.83
2023-09-13T21:36:40.250Z,5.68
2023-09-13T21:39:45.496Z,5.50
2023-09-13T21:42:51.048Z,6.78
2023-09-13T21:46:03.176Z,6.85
2023-09-13T21:49:08.366Z,11.80
2023-09-13T21:52:14.996Z,5.25
2023-09-13T21:55:21.096Z,4.05
2023-09-13T21:58:25.809Z,5.90
2023-09-13T22:01:30.919Z,9.50
2023-09-13T22:04:35.648Z,4.70
2023-09-13T22:07:39.957Z,5.13
2023-09-13T22:10:45.440Z,7.40
2023-09-13T22:13:49.964Z,5.43
2023-09-13T22:16:54.524Z,8.40
2023-09-13T22:19:58.840Z,10.35
2023-09-13T22:23:03.407Z,4.03
2023-09-13T22:26:09.159Z,4.93
2023-09-13T22:29:13.901Z,4.20
2023-09-13T22:32:18.598Z,4.10
2023-09-13T22:35:23.166Z,7.28
2023-09-13T22:38:27.597Z,3.20
2023-09-13T22:41:34.600Z,8.70
2023-09-13T22:44:39.153Z,4.72
2023-09-13T22:47:44.031Z,5.85
2023-09-13T22:50:48.771Z,6.28
2023-09-13T22:53:57.245Z,4.90
2023-09-13T22:57:01.906Z,3.83
2023-09-13T23:00:07.405Z,6.00
2023-09-13T23:03:12.281Z,4.65
2023-09-13T23:06:17.172Z,9.80
2023-09-13T23:09:22.914Z,5.68
2023-09-13T23:12:27.787Z,4.65
2023-09-13T23:15:34.171Z,3.75
2023-09-13T23:18:38.628Z,5.07
2023-09-13T23:21:43.124Z,4.80
2023-09-13T23:24:47.444Z,7.70
2023-09-13T23:27:55.108Z,5.88
2023-09-13T23:31:09.677Z,7.22
2023-09-13T23:37:20.822Z,5.25
2023-09-13T23:40:26.231Z,5.22
2023-09-13T23:43:35.511Z,7.70
2023-09-13T23:46:40.038Z,4.22
2023-09-13T23:49:44.680Z,7.68
2023-09-13T23:52:48.903Z,6.15
2023-09-13T23:55:54.075Z,5.75
2023-09-13T23:58:58.773Z,5.03
